sensor_id;sensor_type;location;lat;lon;timestamp;temperature;humidity
15997;DHT22;8103;51.340;12.326;2023-11-21T00:00:37;7.70;99.90
15997;DHT22;8103;51.340;12.326;2023-11-21T00:03:04;7.70;99.90
15997;DHT22;8103;51.340;12.326;2023-11-21T00:05:31;7.70;99.90
15997;DHT22;8103;51.340;12.326;2023-11-21T00:07:58;7.70;99.90
15997;DHT22;8103;51.340;12.326;2023-11-21T00:10:24;7.60;99.90
15997;DHT22;8103;51.340;12.326;2023-11-21T00:12:51;7.60;99.90
15997;DHT22;8103;51.340;12.326;2023-11-21T00:15:18;7.60;99.90
15997;DHT22;8103;51.340;12.326;2023-11-21T00:17:45;7.60;99.90
15997;DHT22;8103;51.340;12.326;2023-11-21T00:20:13;7.50;99.90
15997;DHT22;8103;51.340;12.326;2023-11-21T00:22:40;7.50;99.90
15997;DHT22;8103;51.340;12.326;2023-11-21T00:25:07;7.50;99.90
15997;DHT22;8103;51.340;12.326;2023-11-21T00:27:35;7.50;99.90
15997;DHT22;8103;51.340;12.326;2023-11-21T00:30:03;7.40;99.90
15997;DHT22;8103;51.340;12.326;2023-11-21T00:32:32;7.40;99.90
15997;DHT22;8103;51.340;12.326;2023-11-21T00:34:58;7.40;99.90
15997;DHT22;8103;51.340;12.326;2023-11-21T00:37:26;7.40;99.90
15997;DHT22;8103;51.340;12.326;2023-11-21T00:39:52;7.30;99.90
15997;DHT22;8103;51.340;12.326;2023-11-21T00:42:19;7.30;99.90
15997;DHT22;8103;51.340;12.326;2023-11-21T00:44:48;7.40;99.90
15997;DHT22;8103;51.340;12.326;2023-11-21T00:47:14;7.40;99.90
15997;DHT22;8103;51.340;12.326;2023-11-21T00:49:41;7.40;99.90
15997;DHT22;8103;51.340;12.326;2023-11-21T00:52:08;7.40;99.90
15997;DHT22;8103;51.340;12.326;2023-11-21T00:54:35;7.40;99.90
15997;DHT22;8103;51.340;12.326;2023-11-21T00:57:02;7.40;99.90
15997;DHT22;8103;51.340;12.326;2023-11-21T00:59:29;7.40;99.90
15997;DHT22;8103;51.340;12.326;2023-11-21T01:01:57;7.40;99.90
15997;DHT22;8103;51.340;12.326;2023-11-21T01:04:27;7.30;99.90
15997;DHT22;8103;51.340;12.326;2023-11-21T01:06:54;7.30;99.90
15997;DHT22;8103;51.340;12.326;2023-11-21T01:09:21;7.20;99.90
15997;DHT22;8103;51.340;12.326;2023-11-21T01:11:47;7.20;99.90
15997;DHT22;8103;51.340;12.326;2023-11-21T01:14:14;7.20;99.90
15997;DHT22;8103;51.340;12.326;2023-11-21T01:16:41;7.20;99.90
15997;DHT22;8103;51.340;12.326;2023-11-21T01:19:07;7.20;99.90
15997;DHT22;8103;51.340;12.326;2023-11-21T01:21:36;7.20;99.90
15997;DHT22;8103;51.340;12.326;2023-11-21T01:24:03;7.30;99.90
15997;DHT22;8103;51.340;12.326;2023-11-21T01:26:30;7.30;99.90
15997;DHT22;8103;51.340;12.326;2023-11-21T01:28:56;7.40;99.90
15997;DHT22;8103;51.340;12.326;2023-11-21T01:31:23;7.50;99.90
15997;DHT22;8103;51.340;12.326;2023-11-21T01:33:50;7.60;99.90
15997;DHT22;8103;51.340;12.326;2023-11-21T01:36:17;7.60;99.90
15997;DHT22;8103;51.340;12.326;2023-11-21T01:38:43;7.70;99.90
15997;DHT22;8103;51.340;12.326;2023-11-21T01:41:10;7.80;99.90
15997;DHT22;8103;51.340;12.326;2023-11-21T01:43:37;7.80;99.90
15997;DHT22;8103;51.340;12.326;2023-11-21T01:46:05;7.80;99.90
15997;DHT22;8103;51.340;12.326;2023-11-21T01:48:33;7.90;99.90
15997;DHT22;8103;51.340;12.326;2023-11-21T01:51:01;7.90;99.90
15997;DHT22;8103;51.340;12.326;2023-11-21T01:53:28;7.90;99.90
15997;DHT22;8103;51.340;12.326;2023-11-21T01:55:55;8.00;99.90
15997;DHT22;8103;51.340;12.326;2023-11-21T01:58:24;8.00;99.90
15997;DHT22;8103;51.340;12.326;2023-11-21T02:00:50;8.00;99.90
15997;DHT22;8103;51.340;12.326;2023-11-21T02:03:17;8.00;99.90
15997;DHT22;8103;51.340;12.326;2023-11-21T02:05:44;8.00;99.90
15997;DHT22;8103;51.340;12.326;2023-11-21T02:08:11;8.10;99.90
15997;DHT22;8103;51.340;12.326;2023-11-21T02:10:38;8.10;99.90
15997;DHT22;8103;51.340;12.326;2023-11-21T02:13:04;8.10;99.90
15997;DHT22;8103;51.340;12.326;2023-11-21T02:15:32;8.10;99.90
15997;DHT22;8103;51.340;12.326;2023-11-21T02:17:59;8.10;99.90
15997;DHT22;8103;51.340;12.326;2023-11-21T02:20:27;8.10;99.90
15997;DHT22;8103;51.340;12.326;2023-11-21T02:22:56;8.10;99.90
15997;DHT22;8103;51.340;12.326;2023-11-21T02:25:31;8.10;99.90
15997;DHT22;8103;51.340;12.326;2023-11-21T02:28:02;8.20;99.90
15997;DHT22;8103;51.340;12.326;2023-11-21T02:30:29;8.10;99.90
15997;DHT22;8103;51.340;12.326;2023-11-21T02:32:59;8.20;99.90
15997;DHT22;8103;51.340;12.326;2023-11-21T02:35:26;8.20;99.90
15997;DHT22;8103;51.340;12.326;2023-11-21T02:37:53;8.10;99.90
15997;DHT22;8103;51.340;12.326;2023-11-21T02:40:20;8.20;99.90
15997;DHT22;8103;51.340;12.326;2023-11-21T02:42:52;8.10;99.90
15997;DHT22;8103;51.340;12.326;2023-11-21T02:45:20;8.20;99.90
15997;DHT22;8103;51.340;12.326;2023-11-21T02:47:48;8.10;99.90
15997;DHT22;8103;51.340;12.326;2023-11-21T02:50:20;8.10;99.90
15997;DHT22;8103;51.340;12.326;2023-11-21T02:52:46;8.10;99.90
15997;DHT22;8103;51.340;12.326;2023-11-21T02:55:13;8.00;99.90
15997;DHT22;8103;51.340;12.326;2023-11-21T02:57:40;8.00;99.90
15997;DHT22;8103;51.340;12.326;2023-11-21T03:00:07;7.90;99.90
15997;DHT22;8103;51.340;12.326;2023-11-21T03:02:35;7.80;99.90
15997;DHT22;8103;51.340;12.326;2023-11-21T03:05:06;7.80;99.90
15997;DHT22;8103;51.340;12.326;2023-11-21T03:07:33;7.70;99.90
15997;DHT22;8103;51.340;12.326;2023-11-21T03:09:59;7.70;99.90
15997;DHT22;8103;51.340;12.326;2023-11-21T03:12:26;7.60;99.90
15997;DHT22;8103;51.340;12.326;2023-11-21T03:14:53;7.60;99.90
15997;DHT22;8103;51.340;12.326;2023-11-21T03:17:20;7.60;99.90
15997;DHT22;8103;51.340;12.326;2023-11-21T03:19:47;7.50;99.90
15997;DHT22;8103;51.340;12.326;2023-11-21T03:22:14;7.50;99.90
15997;DHT22;8103;51.340;12.326;2023-11-21T03:24:41;7.40;99.90
15997;DHT22;8103;51.340;12.326;2023-11-21T03:27:07;7.40;99.90
15997;DHT22;8103;51.340;12.326;2023-11-21T03:29:34;7.30;99.90
15997;DHT22;8103;51.340;12.326;2023-11-21T03:32:01;7.30;99.90
15997;DHT22;8103;51.340;12.326;2023-11-21T03:34:28;7.40;99.90
15997;DHT22;8103;51.340;12.326;2023-11-21T03:36:55;7.40;99.90
15997;DHT22;8103;51.340;12.326;2023-11-21T03:39:22;7.40;99.90
15997;DHT22;8103;51.340;12.326;2023-11-21T03:41:49;7.50;99.90
15997;DHT22;8103;51.340;12.326;2023-11-21T03:44:15;7.60;99.90
15997;DHT22;8103;51.340;12.326;2023-11-21T03:46:42;7.60;99.90
15997;DHT22;8103;51.340;12.326;2023-11-21T03:49:10;7.70;99.90
15997;DHT22;8103;51.340;12.326;2023-11-21T03:51:37;7.70;99.90
15997;DHT22;8103;51.340;12.326;2023-11-21T03:54:04;7.70;99.90
15997;DHT22;8103;51.340;12.326;2023-11-21T03:56:30;7.80;99.90
15997;DHT22;8103;51.340;12.326;2023-11-21T03:58:57;7.80;99.90
15997;DHT22;8103;51.340;12.326;2023-11-21T04:01:24;7.80;99.90
15997;DHT22;8103;51.340;12.326;2023-11-21T04:03:51;7.70;99.90
15997;DHT22;8103;51.340;12.326;2023-11-21T04:06:18;7.70;99.90
15997;DHT22;8103;51.340;12.326;2023-11-21T04:08:45;7.80;99.90
15997;DHT22;8103;51.340;12.326;2023-11-21T04:11:12;7.70;99.90
15997;DHT22;8103;51.340;12.326;2023-11-21T04:13:39;7.70;99.90
15997;DHT22;8103;51.340;12.326;2023-11-21T04:16:07;7.70;99.90
15997;DHT22;8103;51.340;12.326;2023-11-21T04:18:37;7.80;99.90
15997;DHT22;8103;51.340;12.326;2023-11-21T04:21:08;7.80;99.90
15997;DHT22;8103;51.340;12.326;2023-11-21T04:23:35;7.80;99.90
15997;DHT22;8103;51.340;12.326;2023-11-21T04:26:02;7.90;99.90
15997;DHT22;8103;51.340;12.326;2023-11-21T04:28:29;7.90;99.90
15997;DHT22;8103;51.340;12.326;2023-11-21T04:34:49;7.90;99.90
15997;DHT22;8103;51.340;12.326;2023-11-21T04:37:16;8.00;99.90
15997;DHT22;8103;51.340;12.326;2023-11-21T04:39:43;8.00;99.90
15997;DHT22;8103;51.340;12.326;2023-11-21T04:42:09;8.00;99.90
15997;DHT22;8103;51.340;12.326;2023-11-21T04:44:36;8.00;99.90
15997;DHT22;8103;51.340;12.326;2023-11-21T04:47:03;8.00;99.90
15997;DHT22;8103;51.340;12.326;2023-11-21T04:49:31;8.00;99.90
15997;DHT22;8103;51.340;12.326;2023-11-21T04:51:57;8.00;99.90
15997;DHT22;8103;51.340;12.326;2023-11-21T04:54:24;8.00;99.90
15997;DHT22;8103;51.340;12.326;2023-11-21T04:56:53;8.00;99.90
15997;DHT22;8103;51.340;12.326;2023-11-21T04:59:20;8.00;99.90
15997;DHT22;8103;51.340;12.326;2023-11-21T05:01:47;8.00;99.90
15997;DHT22;8103;51.340;12.326;2023-11-21T05:04:14;8.00;99.90
15997;DHT22;8103;51.340;12.326;2023-11-21T05:06:41;8.00;99.90
15997;DHT22;8103;51.340;12.326;2023-11-21T05:09:07;8.10;99.90
15997;DHT22;8103;51.340;12.326;2023-11-21T05:11:38;8.10;99.90
15997;DHT22;8103;51.340;12.326;2023-11-21T05:14:05;8.10;99.90
15997;DHT22;8103;51.340;12.326;2023-11-21T05:16:33;8.10;99.90
15997;DHT22;8103;51.340;12.326;2023-11-21T05:19:01;8.10;99.90
15997;DHT22;8103;51.340;12.326;2023-11-21T05:21:28;8.10;99.90
15997;DHT22;8103;51.340;12.326;2023-11-21T05:23:56;8.10;99.90
15997;DHT22;8103;51.340;12.326;2023-11-21T05:26:23;8.10;99.90
15997;DHT22;8103;51.340;12.326;2023-11-21T05:28:49;8.10;99.90
15997;DHT22;8103;51.340;12.326;2023-11-21T05:31:16;8.10;99.90
15997;DHT22;8103;51.340;12.326;2023-11-21T05:33:43;8.10;99.90
15997;DHT22;8103;51.340;12.326;2023-11-21T05:36:10;8.10;99.90
15997;DHT22;8103;51.340;12.326;2023-11-21T05:38:37;8.20;99.90
15997;DHT22;8103;51.340;12.326;2023-11-21T05:41:03;8.20;99.90
15997;DHT22;8103;51.340;12.326;2023-11-21T05:43:31;8.10;99.90
15997;DHT22;8103;51.340;12.326;2023-11-21T05:45:59;8.20;99.90
15997;DHT22;8103;51.340;12.326;2023-11-21T05:48:26;8.10;99.90
15997;DHT22;8103;51.340;12.326;2023-11-21T05:50:53;8.10;99.90
15997;DHT22;8103;51.340;12.326;2023-11-21T05:53:20;8.10;99.90
15997;DHT22;8103;51.340;12.326;2023-11-21T05:55:48;8.10;99.90
15997;DHT22;8103;51.340;12.326;2023-11-21T05:58:15;8.10;99.90
15997;DHT22;8103;51.340;12.326;2023-11-21T06:00:41;8.10;99.90
15997;DHT22;8103;51.340;12.326;2023-11-21T06:03:08;8.10;99.90
15997;DHT22;8103;51.340;12.326;2023-11-21T06:05:35;8.10;99.90
15997;DHT22;8103;51.340;12.326;2023-11-21T06:08:02;8.00;99.90
15997;DHT22;8103;51.340;12.326;2023-11-21T06:10:28;8.00;99.90
15997;DHT22;8103;51.340;12.326;2023-11-21T06:12:56;8.00;99.90
15997;DHT22;8103;51.340;12.326;2023-11-21T06:15:26;8.00;99.90
15997;DHT22;8103;51.340;12.326;2023-11-21T06:17:52;8.00;99.90
15997;DHT22;8103;51.340;12.326;2023-11-21T06:20:20;8.00;99.90
15997;DHT22;8103;51.340;12.326;2023-11-21T06:22:48;8.20;99.90
15997;DHT22;8103;51.340;12.326;2023-11-21T06:25:16;8.40;99.90
15997;DHT22;8103;51.340;12.326;2023-11-21T06:27:45;8.50;99.90
15997;DHT22;8103;51.340;12.326;2023-11-21T06:30:13;8.60;99.90
15997;DHT22;8103;51.340;12.326;2023-11-21T06:32:41;8.60;99.90
15997;DHT22;8103;51.340;12.326;2023-11-21T06:35:09;8.60;99.90
15997;DHT22;8103;51.340;12.326;2023-11-21T06:37:36;8.50;99.90
15997;DHT22;8103;51.340;12.326;2023-11-21T06:40:03;8.40;99.90
15997;DHT22;8103;51.340;12.326;2023-11-21T06:42:31;8.30;99.90
15997;DHT22;8103;51.340;12.326;2023-11-21T06:44:58;8.30;99.90
15997;DHT22;8103;51.340;12.326;2023-11-21T06:47:25;8.20;99.90
15997;DHT22;8103;51.340;12.326;2023-11-21T06:49:53;8.10;99.90
15997;DHT22;8103;51.340;12.326;2023-11-21T06:52:20;8.10;99.90
15997;DHT22;8103;51.340;12.326;2023-11-21T06:54:48;8.00;99.90
15997;DHT22;8103;51.340;12.326;2023-11-21T06:57:16;7.90;99.90
15997;DHT22;8103;51.340;12.326;2023-11-21T06:59:43;7.90;99.90
15997;DHT22;8103;51.340;12.326;2023-11-21T07:02:10;7.90;99.90
15997;DHT22;8103;51.340;12.326;2023-11-21T07:04:37;7.90;99.90
15997;DHT22;8103;51.340;12.326;2023-11-21T07:07:04;7.90;99.90
15997;DHT22;8103;51.340;12.326;2023-11-21T07:09:31;7.90;99.90
15997;DHT22;8103;51.340;12.326;2023-11-21T07:11:57;7.90;99.90
15997;DHT22;8103;51.340;12.326;2023-11-21T07:14:24;7.90;99.90
15997;DHT22;8103;51.340;12.326;2023-11-21T07:16:51;7.90;99.90
15997;DHT22;8103;51.340;12.326;2023-11-21T07:19:19;7.80;99.90
15997;DHT22;8103;51.340;12.326;2023-11-21T07:21:46;7.90;99.90
15997;DHT22;8103;51.340;12.326;2023-11-21T07:24:13;7.90;99.90
15997;DHT22;8103;51.340;12.326;2023-11-21T07:26:40;7.90;99.90
15997;DHT22;8103;51.340;12.326;2023-11-21T07:29:06;7.90;99.90
15997;DHT22;8103;51.340;12.326;2023-11-21T07:31:33;8.00;99.90
15997;DHT22;8103;51.340;12.326;2023-11-21T07:34:01;8.10;99.90
15997;DHT22;8103;51.340;12.326;2023-11-21T07:36:27;8.10;99.90
15997;DHT22;8103;51.340;12.326;2023-11-21T07:38:54;8.10;99.90
15997;DHT22;8103;51.340;12.326;2023-11-21T07:41:21;8.10;99.90
15997;DHT22;8103;51.340;12.326;2023-11-21T07:43:51;8.20;99.90
15997;DHT22;8103;51.340;12.326;2023-11-21T07:46:18;8.40;99.90
15997;DHT22;8103;51.340;12.326;2023-11-21T07:48:46;8.50;99.90
15997;DHT22;8103;51.340;12.326;2023-11-21T07:51:12;8.70;99.90
15997;DHT22;8103;51.340;12.326;2023-11-21T07:53:40;8.80;99.90
15997;DHT22;8103;51.340;12.326;2023-11-21T07:56:07;9.00;99.90
15997;DHT22;8103;51.340;12.326;2023-11-21T07:58:35;9.00;99.90
15997;DHT22;8103;51.340;12.326;2023-11-21T08:01:03;9.00;99.90
15997;DHT22;8103;51.340;12.326;2023-11-21T08:03:30;9.20;99.90
15997;DHT22;8103;51.340;12.326;2023-11-21T08:05:58;9.20;99.90
15997;DHT22;8103;51.340;12.326;2023-11-21T08:08:26;9.10;99.90
15997;DHT22;8103;51.340;12.326;2023-11-21T08:10:53;9.00;99.90
15997;DHT22;8103;51.340;12.326;2023-11-21T08:13:26;8.90;99.90
15997;DHT22;8103;51.340;12.326;2023-11-21T08:15:55;8.80;99.90
15997;DHT22;8103;51.340;12.326;2023-11-21T08:18:22;8.80;99.90
15997;DHT22;8103;51.340;12.326;2023-11-21T08:20:49;8.60;99.90
15997;DHT22;8103;51.340;12.326;2023-11-21T08:23:16;8.70;99.90
15997;DHT22;8103;51.340;12.326;2023-11-21T08:25:44;8.60;99.90
15997;DHT22;8103;51.340;12.326;2023-11-21T08:28:11;8.60;99.90
15997;DHT22;8103;51.340;12.326;2023-11-21T08:30:38;8.60;99.90
15997;DHT22;8103;51.340;12.326;2023-11-21T08:33:05;8.60;99.90
15997;DHT22;8103;51.340;12.326;2023-11-21T08:35:31;8.60;99.90
15997;DHT22;8103;51.340;12.326;2023-11-21T08:37:58;8.70;99.90
15997;DHT22;8103;51.340;12.326;2023-11-21T08:40:25;8.70;99.90
15997;DHT22;8103;51.340;12.326;2023-11-21T08:42:52;8.70;99.90
15997;DHT22;8103;51.340;12.326;2023-11-21T08:45:19;8.70;99.90
15997;DHT22;8103;51.340;12.326;2023-11-21T08:47:46;8.60;99.90
15997;DHT22;8103;51.340;12.326;2023-11-21T08:50:13;8.50;99.90
15997;DHT22;8103;51.340;12.326;2023-11-21T08:52:41;8.50;99.90
15997;DHT22;8103;51.340;12.326;2023-11-21T08:55:09;8.40;99.90
15997;DHT22;8103;51.340;12.326;2023-11-21T08:57:36;8.40;99.90
15997;DHT22;8103;51.340;12.326;2023-11-21T09:00:03;8.40;99.90
15997;DHT22;8103;51.340;12.326;2023-11-21T09:02:32;8.40;99.90
15997;DHT22;8103;51.340;12.326;2023-11-21T09:05:00;8.40;99.90
15997;DHT22;8103;51.340;12.326;2023-11-21T09:07:29;8.30;99.90
15997;DHT22;8103;51.340;12.326;2023-11-21T09:09:56;8.40;99.90
15997;DHT22;8103;51.340;12.326;2023-11-21T09:12:23;8.30;99.90
15997;DHT22;8103;51.340;12.326;2023-11-21T09:14:51;8.30;99.90
15997;DHT22;8103;51.340;12.326;2023-11-21T09:17:18;8.30;99.90
15997;DHT22;8103;51.340;12.326;2023-11-21T09:19:45;8.40;99.90
15997;DHT22;8103;51.340;12.326;2023-11-21T09:22:17;8.40;99.90
15997;DHT22;8103;51.340;12.326;2023-11-21T09:24:43;8.40;99.90
15997;DHT22;8103;51.340;12.326;2023-11-21T09:27:10;8.50;99.90
15997;DHT22;8103;51.340;12.326;2023-11-21T09:29:37;8.50;99.90
15997;DHT22;8103;51.340;12.326;2023-11-21T09:32:07;8.40;99.90
15997;DHT22;8103;51.340;12.326;2023-11-21T09:34:35;8.50;99.90
15997;DHT22;8103;51.340;12.326;2023-11-21T09:37:05;8.40;99.90
15997;DHT22;8103;51.340;12.326;2023-11-21T09:39:33;8.40;99.90
15997;DHT22;8103;51.340;12.326;2023-11-21T09:42:10;8.40;99.90
15997;DHT22;8103;51.340;12.326;2023-11-21T09:44:55;8.40;99.90
15997;DHT22;8103;51.340;12.326;2023-11-21T09:47:25;8.40;99.90
15997;DHT22;8103;51.340;12.326;2023-11-21T09:49:54;8.40;99.90
15997;DHT22;8103;51.340;12.326;2023-11-21T09:52:31;8.40;99.90
15997;DHT22;8103;51.340;12.326;2023-11-21T09:55:00;8.40;99.90
15997;DHT22;8103;51.340;12.326;2023-11-21T09:57:29;8.40;99.90
15997;DHT22;8103;51.340;12.326;2023-11-21T09:59:58;8.30;99.90
15997;DHT22;8103;51.340;12.326;2023-11-21T10:02:28;8.30;99.90
15997;DHT22;8103;51.340;12.326;2023-11-21T10:04:59;8.30;99.90
15997;DHT22;8103;51.340;12.326;2023-11-21T10:07:28;8.30;99.90
15997;DHT22;8103;51.340;12.326;2023-11-21T10:09:57;8.30;99.90
15997;DHT22;8103;51.340;12.326;2023-11-21T10:12:26;8.20;99.90
15997;DHT22;8103;51.340;12.326;2023-11-21T10:14:56;8.20;99.90
15997;DHT22;8103;51.340;12.326;2023-11-21T10:17:25;8.20;99.90
15997;DHT22;8103;51.340;12.326;2023-11-21T10:19:57;8.20;99.90
15997;DHT22;8103;51.340;12.326;2023-11-21T10:22:25;8.20;99.90
15997;DHT22;8103;51.340;12.326;2023-11-21T10:24:53;8.10;99.90
15997;DHT22;8103;51.340;12.326;2023-11-21T10:27:20;8.10;99.90
15997;DHT22;8103;51.340;12.326;2023-11-21T10:29:47;8.10;99.90
15997;DHT22;8103;51.340;12.326;2023-11-21T10:32:13;8.00;99.90
15997;DHT22;8103;51.340;12.326;2023-11-21T10:34:40;7.90;99.90
15997;DHT22;8103;51.340;12.326;2023-11-21T10:37:11;8.00;99.90
15997;DHT22;8103;51.340;12.326;2023-11-21T10:39:39;8.00;99.90
15997;DHT22;8103;51.340;12.326;2023-11-21T10:42:08;8.00;99.90
15997;DHT22;8103;51.340;12.326;2023-11-21T10:44:35;8.10;99.90
15997;DHT22;8103;51.340;12.326;2023-11-21T10:47:02;8.10;99.90
15997;DHT22;8103;51.340;12.326;2023-11-21T10:49:30;8.20;99.90
15997;DHT22;8103;51.340;12.326;2023-11-21T10:51:57;8.30;99.90
15997;DHT22;8103;51.340;12.326;2023-11-21T10:54:25;8.30;99.90
15997;DHT22;8103;51.340;12.326;2023-11-21T10:57:00;8.50;99.90
15997;DHT22;8103;51.340;12.326;2023-11-21T10:59:31;8.50;99.90
15997;DHT22;8103;51.340;12.326;2023-11-21T11:01:58;8.50;99.90
15997;DHT22;8103;51.340;12.326;2023-11-21T11:04:27;8.50;99.90
15997;DHT22;8103;51.340;12.326;2023-11-21T11:06:57;8.50;99.90
15997;DHT22;8103;51.340;12.326;2023-11-21T11:09:24;8.50;99.90
15997;DHT22;8103;51.340;12.326;2023-11-21T11:11:51;8.40;99.90
15997;DHT22;8103;51.340;12.326;2023-11-21T11:14:20;8.40;99.90
15997;DHT22;8103;51.340;12.326;2023-11-21T11:16:47;8.40;99.90
15997;DHT22;8103;51.340;12.326;2023-11-21T11:19:15;8.40;99.90
15997;DHT22;8103;51.340;12.326;2023-11-21T11:22:12;8.40;99.90
15997;DHT22;8103;51.340;12.326;2023-11-21T11:27:37;8.40;99.90
15997;DHT22;8103;51.340;12.326;2023-11-21T11:30:32;8.30;99.90
15997;DHT22;8103;51.340;12.326;2023-11-21T11:33:41;8.30;99.90
15997;DHT22;8103;51.340;12.326;2023-11-21T11:36:25;8.20;99.90
15997;DHT22;8103;51.340;12.326;2023-11-21T11:38:52;8.20;99.90
15997;DHT22;8103;51.340;12.326;2023-11-21T11:41:27;8.20;99.90
15997;DHT22;8103;51.340;12.326;2023-11-21T11:43:56;8.10;99.90
15997;DHT22;8103;51.340;12.326;2023-11-21T11:46:42;8.10;99.90
15997;DHT22;8103;51.340;12.326;2023-11-21T11:49:09;8.10;99.90
15997;DHT22;8103;51.340;12.326;2023-11-21T11:51:36;8.00;99.90
15997;DHT22;8103;51.340;12.326;2023-11-21T11:54:03;8.00;99.90
15997;DHT22;8103;51.340;12.326;2023-11-21T11:56:34;8.00;99.90
15997;DHT22;8103;51.340;12.326;2023-11-21T11:59:03;7.90;99.90
15997;DHT22;8103;51.340;12.326;2023-11-21T12:01:32;7.90;99.90
15997;DHT22;8103;51.340;12.326;2023-11-21T12:06:43;7.70;99.90
15997;DHT22;8103;51.340;12.326;2023-11-21T12:09:21;7.70;99.90
15997;DHT22;8103;51.340;12.326;2023-11-21T12:11:50;7.60;99.90
15997;DHT22;8103;51.340;12.326;2023-11-21T12:14:17;7.60;99.90
15997;DHT22;8103;51.340;12.326;2023-11-21T12:16:45;7.50;99.90
15997;DHT22;8103;51.340;12.326;2023-11-21T12:19:12;7.40;99.90
15997;DHT22;8103;51.340;12.326;2023-11-21T12:21:39;7.30;99.90
15997;DHT22;8103;51.340;12.326;2023-11-21T12:24:10;7.30;99.90
15997;DHT22;8103;51.340;12.326;2023-11-21T12:26:41;7.30;99.90
15997;DHT22;8103;51.340;12.326;2023-11-21T12:29:07;7.30;99.90
15997;DHT22;8103;51.340;12.326;2023-11-21T12:31:35;7.30;99.90
15997;DHT22;8103;51.340;12.326;2023-11-21T12:34:03;7.20;99.90
15997;DHT22;8103;51.340;12.326;2023-11-21T12:36:31;7.10;99.90
15997;DHT22;8103;51.340;12.326;2023-11-21T12:38:57;7.00;99.90
15997;DHT22;8103;51.340;12.326;2023-11-21T12:41:24;6.90;99.90
15997;DHT22;8103;51.340;12.326;2023-11-21T12:43:52;6.80;99.90
15997;DHT22;8103;51.340;12.326;2023-11-21T12:46:19;6.70;99.90
15997;DHT22;8103;51.340;12.326;2023-11-21T12:48:47;6.60;99.90
15997;DHT22;8103;51.340;12.326;2023-11-21T12:51:14;6.50;99.90
15997;DHT22;8103;51.340;12.326;2023-11-21T12:53:41;6.40;99.90
15997;DHT22;8103;51.340;12.326;2023-11-21T12:56:13;6.30;99.90
15997;DHT22;8103;51.340;12.326;2023-11-21T12:58:44;6.20;99.90
15997;DHT22;8103;51.340;12.326;2023-11-21T13:01:14;6.10;99.90
15997;DHT22;8103;51.340;12.326;2023-11-21T13:03:48;6.10;99.90
15997;DHT22;8103;51.340;12.326;2023-11-21T13:06:18;6.10;99.90
15997;DHT22;8103;51.340;12.326;2023-11-21T13:08:45;6.10;99.90
15997;DHT22;8103;51.340;12.326;2023-11-21T13:11:12;6.10;99.90
15997;DHT22;8103;51.340;12.326;2023-11-21T13:13:41;6.10;99.90
15997;DHT22;8103;51.340;12.326;2023-11-21T13:16:12;6.20;99.90
15997;DHT22;8103;51.340;12.326;2023-11-21T13:18:39;6.30;99.90
15997;DHT22;8103;51.340;12.326;2023-11-21T13:21:09;6.30;99.90
15997;DHT22;8103;51.340;12.326;2023-11-21T13:23:41;6.20;99.90
15997;DHT22;8103;51.340;12.326;2023-11-21T13:29:55;6.30;99.90
15997;DHT22;8103;51.340;12.326;2023-11-21T13:32:22;6.30;99.90
15997;DHT22;8103;51.340;12.326;2023-11-21T13:34:49;6.30;99.90
15997;DHT22;8103;51.340;12.326;2023-11-21T13:37:19;6.30;99.90
15997;DHT22;8103;51.340;12.326;2023-11-21T13:39:46;6.30;99.90
15997;DHT22;8103;51.340;12.326;2023-11-21T13:42:17;6.40;99.90
15997;DHT22;8103;51.340;12.326;2023-11-21T13:44:44;6.40;99.90
15997;DHT22;8103;51.340;12.326;2023-11-21T13:47:14;6.50;99.90
15997;DHT22;8103;51.340;12.326;2023-11-21T13:49:41;6.50;99.90
15997;DHT22;8103;51.340;12.326;2023-11-21T13:52:08;6.50;99.90
15997;DHT22;8103;51.340;12.326;2023-11-21T13:54:37;6.50;99.90
15997;DHT22;8103;51.340;12.326;2023-11-21T13:57:04;6.40;99.90
15997;DHT22;8103;51.340;12.326;2023-11-21T13:59:31;6.50;99.90
15997;DHT22;8103;51.340;12.326;2023-11-21T14:01:59;6.50;99.90
15997;DHT22;8103;51.340;12.326;2023-11-21T14:04:27;6.60;99.90
15997;DHT22;8103;51.340;12.326;2023-11-21T14:06:56;6.60;99.90
15997;DHT22;8103;51.340;12.326;2023-11-21T14:09:24;6.60;99.90
15997;DHT22;8103;51.340;12.326;2023-11-21T14:11:53;6.60;99.90
15997;DHT22;8103;51.340;12.326;2023-11-21T14:14:23;6.60;99.90
15997;DHT22;8103;51.340;12.326;2023-11-21T14:16:52;6.60;99.90
15997;DHT22;8103;51.340;12.326;2023-11-21T14:19:19;6.60;99.90
15997;DHT22;8103;51.340;12.326;2023-11-21T14:21:46;6.60;99.90
15997;DHT22;8103;51.340;12.326;2023-11-21T14:24:15;6.60;99.90
15997;DHT22;8103;51.340;12.326;2023-11-21T14:26:47;6.60;99.90
15997;DHT22;8103;51.340;12.326;2023-11-21T14:29:27;6.60;99.90
15997;DHT22;8103;51.340;12.326;2023-11-21T14:32:08;6.60;99.90
15997;DHT22;8103;51.340;12.326;2023-11-21T14:34:39;6.60;99.90
15997;DHT22;8103;51.340;12.326;2023-11-21T14:37:07;6.60;99.90
15997;DHT22;8103;51.340;12.326;2023-11-21T14:39:34;6.60;99.90
15997;DHT22;8103;51.340;12.326;2023-11-21T14:42:07;6.50;99.90
15997;DHT22;8103;51.340;12.326;2023-11-21T14:44:34;6.50;99.90
15997;DHT22;8103;51.340;12.326;2023-11-21T14:47:06;6.50;99.90
15997;DHT22;8103;51.340;12.326;2023-11-21T14:49:42;6.50;99.90
15997;DHT22;8103;51.340;12.326;2023-11-21T14:52:23;6.50;99.90
15997;DHT22;8103;51.340;12.326;2023-11-21T14:55:04;6.40;99.90
15997;DHT22;8103;51.340;12.326;2023-11-21T14:57:52;6.40;99.90
15997;DHT22;8103;51.340;12.326;2023-11-21T15:00:20;6.40;99.90
15997;DHT22;8103;51.340;12.326;2023-11-21T15:03:02;6.30;99.90
15997;DHT22;8103;51.340;12.326;2023-11-21T15:05:31;6.30;99.90
15997;DHT22;8103;51.340;12.326;2023-11-21T15:07:57;6.30;99.90
15997;DHT22;8103;51.340;12.326;2023-11-21T15:10:38;6.30;99.90
15997;DHT22;8103;51.340;12.326;2023-11-21T15:13:13;6.30;99.90
15997;DHT22;8103;51.340;12.326;2023-11-21T15:15:42;6.30;99.90
15997;DHT22;8103;51.340;12.326;2023-11-21T15:18:09;6.30;99.90
15997;DHT22;8103;51.340;12.326;2023-11-21T15:20:42;6.20;99.90
15997;DHT22;8103;51.340;12.326;2023-11-21T15:23:10;6.30;99.90
15997;DHT22;8103;51.340;12.326;2023-11-21T15:25:36;6.30;99.90
15997;DHT22;8103;51.340;12.326;2023-11-21T15:28:03;6.30;99.90
15997;DHT22;8103;51.340;12.326;2023-11-21T15:30:31;6.20;99.90
15997;DHT22;8103;51.340;12.326;2023-11-21T15:32:59;6.20;99.90
15997;DHT22;8103;51.340;12.326;2023-11-21T15:35:26;6.20;99.90
15997;DHT22;8103;51.340;12.326;2023-11-21T15:37:54;6.20;99.90
15997;DHT22;8103;51.340;12.326;2023-11-21T15:40:25;6.20;99.90
15997;DHT22;8103;51.340;12.326;2023-11-21T15:42:53;6.20;99.90
15997;DHT22;8103;51.340;12.326;2023-11-21T15:45:20;6.20;99.90
15997;DHT22;8103;51.340;12.326;2023-11-21T15:47:50;6.20;99.90
15997;DHT22;8103;51.340;12.326;2023-11-21T15:50:16;6.10;99.90
15997;DHT22;8103;51.340;12.326;2023-11-21T15:52:43;6.10;99.90
15997;DHT22;8103;51.340;12.326;2023-11-21T15:55:21;6.10;99.90
15997;DHT22;8103;51.340;12.326;2023-11-21T15:57:47;6.10;99.90
15997;DHT22;8103;51.340;12.326;2023-11-21T16:00:15;6.20;99.90
15997;DHT22;8103;51.340;12.326;2023-11-21T16:02:46;6.20;99.90
15997;DHT22;8103;51.340;12.326;2023-11-21T16:05:13;6.20;99.90